Time,TemperatureF,DewpointF,PressureIn,WindDirection,WindDirectionDegrees,WindSpeedMPH,WindSpeedGustMPH,Humidity,HourlyPrecipIn,Conditions,Clouds,dailyrainin,SolarRadiationWatts/m^2,SoftwareType,DateUTC
2013-02-26 00:01:00,27.0,17.0,-100.00,ENE,69,4.0,5.0,66,0.00,,,0.00,0.000000,,2013-02-26 05:01:00,
2013-02-26 00:32:00,25.0,17.0,-100.00,ENE,64,3.0,3.0,70,0.00,,,0.00,0.000000,,2013-02-26 05:32:00,
2013-02-26 00:43:00,25.0,17.0,-100.00,ENE,64,3.0,3.0,70,0.00,,,0.00,0.000000,,2013-02-26 05:43:00,
2013-02-26 00:52:00,25.0,17.0,-100.00,ENE,64,3.0,3.0,70,0.00,,,0.00,0.000000,,2013-02-26 05:52:00,
2013-02-26 01:02:00,25.0,17.0,-100.00,ENE,64,3.0,3.0,70,0.00,,,0.00,0.000000,,2013-02-26 06:02:00,
2013-02-26 01:32:00,26.0,17.0,-100.00,East,86,4.0,7.0,68,0.00,,,0.00,0.000000,,2013-02-26 06:32:00,
2013-02-26 01:42:00,26.0,17.0,-100.00,East,86,4.0,7.0,68,0.00,,,0.00,0.000000,,2013-02-26 06:42:00,
2013-02-26 01:52:00,26.0,17.0,-100.00,East,86,4.0,7.0,68,0.00,,,0.00,0.000000,,2013-02-26 06:52:00,
2013-02-26 02:01:00,26.0,17.0,-100.00,East,86,4.0,7.0,68,0.00,,,0.00,0.000000,,2013-02-26 07:01:00,
2013-02-26 02:32:00,26.0,17.0,-100.00,East,83,3.0,6.0,69,0.00,,,0.00,0.000000,,2013-02-26 07:32:00,
2013-02-26 02:42:00,26.0,17.0,-100.00,East,83,3.0,6.0,69,0.00,,,0.00,0.000000,,2013-02-26 07:42:00,
2013-02-26 02:52:00,26.0,17.0,-100.00,East,83,3.0,6.0,69,0.00,,,0.00,0.000000,,2013-02-26 07:52:00,
2013-02-26 03:02:00,26.0,17.0,-100.00,East,83,3.0,6.0,69,0.00,,,0.00,0.000000,,2013-02-26 08:02:00,
2013-02-26 03:32:00,27.0,18.0,-100.00,East,80,4.0,9.0,68,0.00,,,0.00,0.000000,,2013-02-26 08:32:00,
2013-02-26 03:42:00,27.0,18.0,-100.00,East,80,4.0,9.0,68,0.00,,,0.00,0.000000,,2013-02-26 08:42:00,
2013-02-26 03:52:00,27.0,18.0,-100.00,East,80,4.0,9.0,68,0.00,,,0.00,0.000000,,2013-02-26 08:52:00,
2013-02-26 04:02:00,27.0,18.0,-100.00,East,80,4.0,9.0,68,0.00,,,0.00,0.000000,,2013-02-26 09:02:00,
2013-02-26 04:32:00,26.0,18.0,-100.00,East,90,4.0,10.0,70,0.00,,,0.00,0.000000,,2013-02-26 09:32:00,
2013-02-26 04:43:00,26.0,18.0,-100.00,East,90,4.0,10.0,70,0.00,,,0.00,0.000000,,2013-02-26 09:43:00,
2013-02-26 04:52:00,26.0,18.0,-100.00,East,90,4.0,10.0,70,0.00,,,0.00,0.000000,,2013-02-26 09:52:00,
2013-02-26 05:01:00,26.0,18.0,-100.00,East,90,4.0,10.0,70,0.00,,,0.00,0.000000,,2013-02-26 10:01:00,
2013-02-26 05:32:00,26.0,18.0,-100.00,East,89,5.0,8.0,72,0.00,,,0.00,0.000000,,2013-02-26 10:32:00,
2013-02-26 05:42:00,26.0,18.0,-100.00,East,89,5.0,8.0,72,0.00,,,0.00,0.000000,,2013-02-26 10:42:00,
2013-02-26 05:52:00,26.0,18.0,-100.00,East,89,5.0,8.0,72,0.00,,,0.00,0.000000,,2013-02-26 10:52:00,
2013-02-26 06:01:00,26.0,18.0,-100.00,East,89,5.0,8.0,72,0.00,,,0.00,0.000000,,2013-02-26 11:01:00,
2013-02-26 06:32:00,27.0,20.0,-100.00,ENE,77,6.0,10.0,73,0.00,,,0.00,0.000000,,2013-02-26 11:32:00,
2013-02-26 06:42:00,27.0,20.0,-100.00,ENE,77,6.0,10.0,73,0.00,,,0.00,0.000000,,2013-02-26 11:42:00,
2013-02-26 06:53:00,27.0,20.0,-100.00,ENE,77,6.0,10.0,73,0.00,,,0.00,0.000000,,2013-02-26 11:53:00,
2013-02-26 07:02:00,27.0,20.0,-100.00,ENE,77,6.0,10.0,73,0.00,,,0.00,0.000000,,2013-02-26 12:02:00,
2013-02-26 07:32:00,27.0,20.0,-100.00,ESE,109,6.0,10.0,73,0.00,,,0.00,1.000000,,2013-02-26 12:32:00,
2013-02-26 07:42:00,27.0,20.0,-100.00,ESE,109,6.0,10.0,73,0.00,,,0.00,1.000000,,2013-02-26 12:42:00,
2013-02-26 07:53:00,27.0,20.0,-100.00,ESE,109,6.0,10.0,73,0.00,,,0.00,1.000000,,2013-02-26 12:53:00,
2013-02-26 08:02:00,27.0,20.0,-100.00,ESE,109,6.0,10.0,73,0.00,,,0.00,1.000000,,2013-02-26 13:02:00,
2013-02-26 08:32:00,29.0,20.0,-100.00,ESE,108,7.0,12.0,70,0.00,,,0.00,47.000000,,2013-02-26 13:32:00,
2013-02-26 08:42:00,29.0,20.0,-100.00,ESE,108,7.0,12.0,70,0.00,,,0.00,47.000000,,2013-02-26 13:42:00,
2013-02-26 08:52:00,29.0,20.0,-100.00,ESE,108,7.0,12.0,70,0.00,,,0.00,47.000000,,2013-02-26 13:52:00,
2013-02-26 09:02:00,29.0,20.0,-100.00,ESE,108,7.0,12.0,70,0.00,,,0.00,47.000000,,2013-02-26 14:02:00,
2013-02-26 09:32:00,32.0,22.0,-100.00,ESE,114,8.0,15.0,65,0.00,,,0.00,152.000000,,2013-02-26 14:32:00,
2013-02-26 09:42:00,32.0,22.0,-100.00,ESE,114,8.0,15.0,65,0.00,,,0.00,152.000000,,2013-02-26 14:42:00,
2013-02-26 09:52:00,32.0,22.0,-100.00,ESE,114,8.0,15.0,65,0.00,,,0.00,152.000000,,2013-02-26 14:52:00,
2013-02-26 10:02:00,32.0,22.0,-100.00,ESE,114,8.0,15.0,65,0.00,,,0.00,152.000000,,2013-02-26 15:02:00,
2013-02-26 10:32:00,34.0,22.0,-100.00,ESE,115,11.0,22.0,61,0.00,,,0.00,264.000000,,2013-02-26 15:32:00,
2013-02-26 10:42:00,34.0,22.0,-100.00,ESE,115,11.0,22.0,61,0.00,,,0.00,264.000000,,2013-02-26 15:42:00,
2013-02-26 10:52:00,34.0,22.0,-100.00,ESE,115,11.0,22.0,61,0.00,,,0.00,264.000000,,2013-02-26 15:52:00,
2013-02-26 11:02:00,34.0,22.0,-100.00,ESE,115,11.0,22.0,61,0.00,,,0.00,264.000000,,2013-02-26 16:02:00,
2013-02-26 11:32:00,35.0,23.0,-100.00,ESE,114,10.0,18.0,60,0.00,,,0.00,325.000000,,2013-02-26 16:32:00,
2013-02-26 11:42:00,35.0,23.0,-100.00,ESE,114,10.0,18.0,60,0.00,,,0.00,325.000000,,2013-02-26 16:42:00,
2013-02-26 11:52:00,35.0,23.0,-100.00,ESE,114,10.0,18.0,60,0.00,,,0.00,325.000000,,2013-02-26 16:52:00,
2013-02-26 12:01:00,35.0,23.0,-100.00,ESE,114,10.0,18.0,60,0.00,,,0.00,325.000000,,2013-02-26 17:01:00,
2013-02-26 12:32:00,36.0,22.0,-100.00,ESE,118,11.0,18.0,57,0.00,,,0.00,302.000000,,2013-02-26 17:32:00,
2013-02-26 12:42:00,36.0,22.0,-100.00,ESE,118,11.0,18.0,57,0.00,,,0.00,302.000000,,2013-02-26 17:42:00,
2013-02-26 12:52:00,36.0,22.0,-100.00,ESE,118,11.0,18.0,57,0.00,,,0.00,302.000000,,2013-02-26 17:52:00,
2013-02-26 13:02:00,36.0,22.0,-100.00,ESE,118,11.0,18.0,57,0.00,,,0.00,302.000000,,2013-02-26 18:02:00,
2013-02-26 13:32:00,36.0,22.0,-100.00,ESE,123,12.0,18.0,56,0.00,,,0.00,230.000000,,2013-02-26 18:32:00,
2013-02-26 13:42:00,36.0,22.0,-100.00,ESE,123,12.0,18.0,56,0.00,,,0.00,230.000000,,2013-02-26 18:42:00,
2013-02-26 13:53:00,36.0,22.0,-100.00,ESE,123,12.0,18.0,56,0.00,,,0.00,230.000000,,2013-02-26 18:53:00,
2013-02-26 14:02:00,36.0,22.0,-100.00,ESE,123,12.0,18.0,56,0.00,,,0.00,230.000000,,2013-02-26 19:02:00,
2013-02-26 14:32:00,35.0,22.0,-100.00,ESE,117,11.0,16.0,58,0.00,,,0.00,111.000000,,2013-02-26 19:32:00,
2013-02-26 14:42:00,35.0,22.0,-100.00,ESE,117,11.0,16.0,58,0.00,,,0.00,111.000000,,2013-02-26 19:42:00,
2013-02-26 14:52:00,35.0,22.0,-100.00,ESE,117,11.0,16.0,58,0.00,,,0.00,111.000000,,2013-02-26 19:52:00,
2013-02-26 15:01:00,35.0,22.0,-100.00,ESE,117,11.0,16.0,58,0.00,,,0.00,111.000000,,2013-02-26 20:01:00,
2013-02-26 17:32:00,32.0,29.0,-100.00,ESE,102,9.0,15.0,88,-99.99,,,0.16,10.000000,,2013-02-26 22:32:00,
2013-02-26 17:42:00,32.0,29.0,-100.00,ESE,102,9.0,15.0,88,-99.99,,,0.16,10.000000,,2013-02-26 22:42:00,
2013-02-26 17:52:00,32.0,29.0,-100.00,ESE,102,9.0,15.0,88,-99.99,,,0.16,10.000000,,2013-02-26 22:52:00,
2013-02-26 18:01:00,32.0,29.0,-100.00,ESE,102,9.0,15.0,88,-99.99,,,0.16,10.000000,,2013-02-26 23:01:00,
2013-02-26 18:32:00,33.0,30.0,-100.00,East,98,9.0,12.0,90,0.23,,,0.39,4.000000,,2013-02-26 23:32:00,
2013-02-26 18:42:00,33.0,30.0,-100.00,East,98,9.0,12.0,90,0.23,,,0.39,4.000000,,2013-02-26 23:42:00,
2013-02-26 18:52:00,33.0,30.0,-100.00,East,98,9.0,12.0,90,0.23,,,0.39,4.000000,,2013-02-26 23:52:00,
2013-02-26 19:02:00,33.0,30.0,-100.00,East,98,9.0,12.0,90,0.23,,,0.39,4.000000,,2013-02-27 00:02:00,
2013-02-26 19:32:00,33.0,30.0,-100.00,East,101,6.0,13.0,89,0.06,,,0.45,0.000000,,2013-02-27 00:32:00,
2013-02-26 19:42:00,33.0,30.0,-100.00,East,101,6.0,13.0,89,0.06,,,0.45,0.000000,,2013-02-27 00:42:00,
2013-02-26 19:52:00,33.0,30.0,-100.00,East,101,6.0,13.0,89,0.06,,,0.45,0.000000,,2013-02-27 00:52:00,
2013-02-26 20:01:00,33.0,30.0,-100.00,East,101,6.0,13.0,89,0.06,,,0.45,0.000000,,2013-02-27 01:01:00,
2013-02-26 20:32:00,33.0,31.0,-100.00,ESE,104,6.0,12.0,92,0.11,,,0.56,0.000000,,2013-02-27 01:32:00,
2013-02-26 20:42:00,33.0,31.0,-100.00,ESE,104,6.0,12.0,92,0.11,,,0.56,0.000000,,2013-02-27 01:42:00,
2013-02-26 20:52:00,33.0,31.0,-100.00,ESE,104,6.0,12.0,92,0.11,,,0.56,0.000000,,2013-02-27 01:52:00,
2013-02-26 21:02:00,33.0,31.0,-100.00,ESE,104,6.0,12.0,92,0.11,,,0.56,0.000000,,2013-02-27 02:02:00,
2013-02-26 21:32:00,32.0,30.0,-100.00,ESE,107,7.0,15.0,94,0.00,,,0.56,0.000000,,2013-02-27 02:32:00,
2013-02-26 21:42:00,32.0,30.0,-100.00,ESE,107,7.0,15.0,94,0.00,,,0.56,0.000000,,2013-02-27 02:42:00,
2013-02-26 21:52:00,32.0,30.0,-100.00,ESE,107,7.0,15.0,94,0.00,,,0.56,0.000000,,2013-02-27 02:52:00,
2013-02-26 22:02:00,32.0,30.0,-100.00,ESE,107,7.0,15.0,94,0.00,,,0.56,0.000000,,2013-02-27 03:02:00,
2013-02-26 22:32:00,33.0,31.0,-100.00,ESE,103,10.0,14.0,94,0.00,,,0.56,0.000000,,2013-02-27 03:32:00,
2013-02-26 22:42:00,33.0,31.0,-100.00,ESE,103,10.0,14.0,94,0.00,,,0.56,0.000000,,2013-02-27 03:42:00,
2013-02-26 22:52:00,33.0,31.0,-100.00,ESE,103,10.0,14.0,94,0.00,,,0.56,0.000000,,2013-02-27 03:52:00,
2013-02-26 23:02:00,33.0,31.0,-100.00,ESE,103,10.0,14.0,94,0.00,,,0.56,0.000000,,2013-02-27 04:02:00,
2013-02-26 23:32:00,33.0,31.0,-100.00,ESE,110,8.0,15.0,91,0.00,,,0.56,0.000000,,2013-02-27 04:32:00,
2013-02-26 23:42:00,33.0,31.0,-100.00,ESE,110,8.0,15.0,91,0.00,,,0.56,0.000000,,2013-02-27 04:42:00,
2013-02-26 23:52:00,33.0,31.0,-100.00,ESE,110,8.0,15.0,91,0.00,,,0.56,0.000000,,2013-02-27 04:52:00,